createdAt,value
2023-04-16T00:00:19.032Z,101244.97
2023-04-16T00:02:45.501Z,101238.56
2023-04-16T00:05:12.008Z,101242.53
2023-04-16T00:07:38.432Z,101244.53
2023-04-16T00:10:05.693Z,101243.69
2023-04-16T00:12:32.106Z,101245.69
2023-04-16T00:14:58.969Z,101242.91
2023-04-16T00:17:25.689Z,101244.38
2023-04-16T00:19:52.125Z,101247.19
2023-04-16T00:22:18.509Z,101253.59
2023-04-16T00:24:44.869Z,101247.19
2023-04-16T00:27:11.313Z,101243.56
2023-04-16T00:29:37.705Z,101247.53
2023-04-16T00:32:04.342Z,101248.34
2023-04-16T00:34:31.137Z,101242.75
2023-04-16T00:36:57.669Z,101241.59
2023-04-16T00:39:24.131Z,101241.59
2023-04-16T00:41:50.519Z,101241.22
2023-04-16T00:44:16.829Z,101239.63
2023-04-16T00:46:44.114Z,101244.84
2023-04-16T00:49:10.892Z,101241.22
2023-04-16T00:51:37.555Z,101244.38
2023-04-16T00:54:04.448Z,101249.97
2023-04-16T00:56:31.121Z,101249.53
2023-04-16T00:58:57.519Z,101241.47
2023-04-16T01:01:24.012Z,101244.63
2023-04-16T01:03:50.945Z,101255.34
2023-04-16T01:06:18.392Z,101247.28
2023-04-16T01:08:45.307Z,101248.81
2023-04-16T01:11:12.106Z,101249.13
2023-04-16T01:13:39.510Z,101250.31
2023-04-16T01:16:07.925Z,101249.13
2023-04-16T01:18:35.562Z,101244.72
2023-04-16T01:21:01.951Z,101248.31
2023-04-16T01:23:28.392Z,101246.69
2023-04-16T01:25:54.818Z,101259.41
2023-04-16T01:28:21.382Z,101256.63
2023-04-16T01:30:48.040Z,101261.03
2023-04-16T01:33:15.557Z,101260.22
2023-04-16T01:35:42.222Z,101267.44
2023-04-16T01:38:09.453Z,101269.88
2023-04-16T01:40:36.569Z,101270.34
2023-04-16T01:43:03.624Z,101277.56
2023-04-16T01:45:32.267Z,101274.78
2023-04-16T01:47:58.753Z,101283.59
2023-04-16T01:50:25.100Z,101269.63
2023-04-16T01:52:51.447Z,101278.84
2023-04-16T01:55:18.197Z,101269.31
2023-04-16T01:57:44.541Z,101279.66
2023-04-16T02:00:11.566Z,101271.25
2023-04-16T02:02:38.428Z,101273.25
2023-04-16T02:05:05.540Z,101274.91
2023-04-16T02:07:31.942Z,101274.91
2023-04-16T02:09:58.591Z,101280.13
2023-04-16T02:12:25.923Z,101279.78
2023-04-16T02:14:52.354Z,101278.16
2023-04-16T02:17:19.024Z,101279.78
2023-04-16T02:19:45.414Z,101280.59
2023-04-16T02:22:12.077Z,101275.81
2023-04-16T02:24:38.379Z,101274.69
2023-04-16T02:27:04.718Z,101269.91
2023-04-16T02:29:31.804Z,101269.91
2023-04-16T02:31:59.832Z,101265.13
2023-04-16T02:34:26.196Z,101273.97
2023-04-16T02:36:52.798Z,101270.34
2023-04-16T02:39:19.387Z,101267.19
2023-04-16T02:41:45.961Z,101266.38
2023-04-16T02:44:12.545Z,101265.25
2023-04-16T02:46:38.926Z,101265.25
2023-04-16T02:49:05.475Z,101266.88
2023-04-16T02:51:33.141Z,101264.06
2023-04-16T02:53:59.717Z,101267.31
2023-04-16T02:56:26.169Z,101261.38
2023-04-16T02:58:52.773Z,101277.34
2023-04-16T03:01:19.151Z,101285.41
2023-04-16T03:03:45.809Z,101277.00
2023-04-16T03:06:12.909Z,101277.81
2023-04-16T03:08:39.266Z,101275.03
2023-04-16T03:11:05.702Z,101275.47
2023-04-16T03:13:32.276Z,101279.09
2023-04-16T03:15:58.878Z,101279.56
2023-04-16T03:18:25.400Z,101277.09
2023-04-16T03:20:53.312Z,101273.16
2023-04-16T03:23:20.165Z,101276.78
2023-04-16T03:25:48.156Z,101277.25
2023-04-16T03:28:15.185Z,101282.84
2023-04-16T03:30:41.550Z,101286.47
2023-04-16T03:33:08.154Z,101290.06
2023-04-16T03:35:34.630Z,101285.66
2023-04-16T03:38:01.257Z,101292.41
2023-04-16T03:40:27.874Z,101289.63
2023-04-16T03:42:54.188Z,101289.63
2023-04-16T03:45:20.504Z,101295.22
2023-04-16T03:47:52.321Z,101295.53
2023-04-16T03:50:19.474Z,101296.03
2023-04-16T03:52:46.942Z,101298.81
2023-04-16T03:55:13.826Z,101300.44
2023-04-16T03:57:40.656Z,101295.66
2023-04-16T04:00:07.717Z,101305.69
2023-04-16T04:02:34.402Z,101294.16
2023-04-16T04:05:01.265Z,101295.78
2023-04-16T04:07:27.660Z,101302.19
2023-04-16T04:09:54.153Z,101296.28
2023-04-16T04:12:20.537Z,101298.22
2023-04-16T04:14:46.870Z,101302.69
2023-04-16T04:17:13.460Z,101310.72
2023-04-16T04:19:47.253Z,101307.09
2023-04-16T04:22:21.205Z,101305.94
2023-04-16T04:24:47.553Z,101314.31
2023-04-16T04:27:13.927Z,101306.75
2023-04-16T04:29:40.568Z,101315.63
2023-04-16T04:32:07.078Z,101315.63
2023-04-16T04:34:33.701Z,101318.88
2023-04-16T04:37:00.050Z,101316.06
2023-04-16T04:39:27.100Z,101324.09
2023-04-16T04:41:53.468Z,101322.94
2023-04-16T04:44:19.790Z,101330.97
2023-04-16T04:46:46.149Z,101327.38
2023-04-16T04:49:12.691Z,101333.78
2023-04-16T04:51:39.351Z,101335.41
2023-04-16T04:54:06.022Z,101339.81
2023-04-16T04:56:32.392Z,101340.63
2023-04-16T04:58:58.727Z,101341.47
2023-04-16T05:01:25.413Z,101338.69
2023-04-16T05:03:52.002Z,101345.09
2023-04-16T05:06:18.561Z,101348.69
2023-04-16T05:08:45.157Z,101352.31
2023-04-16T05:11:11.548Z,101343.13
2023-04-16T05:13:38.044Z,101349.50
2023-04-16T05:16:04.776Z,101352.31
2023-04-16T05:18:32.578Z,101351.13
2023-04-16T05:20:59.184Z,101352.78
2023-04-16T05:23:25.752Z,101355.56
2023-04-16T05:25:52.081Z,101353.25
2023-04-16T05:28:18.508Z,101350.44
2023-04-16T05:30:44.848Z,101361.28
2023-04-16T05:33:11.236Z,101360.13
2023-04-16T05:35:37.685Z,101357.69
2023-04-16T05:38:06.622Z,101362.91
2023-04-16T05:40:33.187Z,101365.38
2023-04-16T05:42:59.525Z,101367.31
2023-04-16T05:45:27.967Z,101375.41
2023-04-16T05:47:54.866Z,101376.22
2023-04-16T05:50:21.624Z,101377.84
2023-04-16T05:52:47.951Z,101383.06
2023-04-16T05:55:14.421Z,101378.28
2023-04-16T05:57:40.817Z,101383.88
2023-04-16T06:00:08.030Z,101389.16
2023-04-16T06:02:34.791Z,101394.03
2023-04-16T06:05:01.505Z,101396.81
2023-04-16T06:07:28.113Z,101408.84
2023-04-16T06:09:54.729Z,101400.91
2023-04-16T06:12:21.072Z,101400.09
2023-04-16T06:14:47.532Z,101397.31
2023-04-16T06:17:13.925Z,101400.09
2023-04-16T06:19:40.951Z,101398.13
2023-04-16T06:22:07.383Z,101412.47
2023-04-16T06:24:34.704Z,101404.88
2023-04-16T06:27:01.300Z,101406.88
2023-04-16T06:29:33.688Z,101410.47
2023-04-16T06:32:07.379Z,101410.13
2023-04-16T06:34:33.834Z,101413.72
2023-04-16T06:37:00.311Z,101413.72
2023-04-16T06:39:26.879Z,101414.91
2023-04-16T06:41:53.445Z,101424.09
2023-04-16T06:44:19.809Z,101423.28
2023-04-16T06:46:46.203Z,101425.28
2023-04-16T06:49:12.801Z,101426.09
2023-04-16T06:51:39.134Z,101424.91
2023-04-16T06:54:05.508Z,101433.81
2023-04-16T06:56:32.287Z,101431.47
2023-04-16T06:59:00.795Z,101434.25
2023-04-16T07:01:27.604Z,101435.56
2023-04-16T07:03:54.564Z,101439.63
2023-04-16T07:06:21.333Z,101433.22
2023-04-16T07:08:47.945Z,101436.38
2023-04-16T07:11:14.500Z,101452.66
2023-04-16T07:13:40.997Z,101455.47
2023-04-16T07:16:08.046Z,101453.47
2023-04-16T07:18:34.400Z,101449.88
2023-04-16T07:21:00.966Z,101451.50
2023-04-16T07:23:27.880Z,101463.53
2023-04-16T07:25:54.257Z,101459.22
2023-04-16T07:28:20.760Z,101463.31
2023-04-16T07:30:47.188Z,101460.16
2023-04-16T07:33:13.843Z,101452.22
2023-04-16T07:35:40.185Z,101458.63
2023-04-16T07:38:06.523Z,101475.91
2023-04-16T07:40:33.096Z,101469.47
2023-04-16T07:42:59.427Z,101474.59
2023-04-16T07:45:25.786Z,101473.78
2023-04-16T07:47:52.161Z,101479.59
2023-04-16T07:50:19.445Z,101479.16
2023-04-16T07:52:47.282Z,101490.66
2023-04-16T07:55:13.642Z,101484.25
2023-04-16T07:57:41.151Z,101479.84
2023-04-16T08:00:08.638Z,101484.63
2023-04-16T08:02:35.384Z,101488.22
2023-04-16T08:05:02.032Z,101491.50
2023-04-16T08:07:28.634Z,101495.44
2023-04-16T08:09:55.055Z,101502.22
2023-04-16T08:12:21.686Z,101507.00
2023-04-16T08:14:48.444Z,101508.97
2023-04-16T08:17:15.469Z,101511.63
2023-04-16T08:19:43.739Z,101512.81
2023-04-16T08:22:10.664Z,101517.25
2023-04-16T08:24:37.270Z,101520.03
2023-04-16T08:27:17.275Z,101512.81
2023-04-16T08:29:45.226Z,101522.00
2023-04-16T08:32:11.853Z,101528.06
2023-04-16T08:34:38.417Z,101526.13
2023-04-16T08:37:04.984Z,101532.53
2023-04-16T08:39:31.592Z,101534.16
2023-04-16T08:41:59.177Z,101537.41
2023-04-16T08:44:27.678Z,101536.28
2023-04-16T08:46:59.062Z,101542.31
2023-04-16T08:49:26.708Z,101548.06
2023-04-16T08:51:55.086Z,101554.91
2023-04-16T08:54:46.473Z,101550.97
2023-04-16T08:57:27.043Z,101558.00
2023-04-16T08:59:55.966Z,101543.63
2023-04-16T09:02:23.068Z,101550.53
2023-04-16T09:04:51.176Z,101550.31
2023-04-16T09:07:20.785Z,101551.13
2023-04-16T09:09:49.988Z,101558.81
2023-04-16T09:12:17.473Z,101558.50
2023-04-16T09:14:49.325Z,101561.28
2023-04-16T09:17:16.569Z,101554.50
2023-04-16T09:19:43.139Z,101554.97
2023-04-16T09:22:09.592Z,101551.84
2023-04-16T09:24:38.700Z,101562.31
2023-04-16T09:27:05.692Z,101560.03
2023-04-16T09:29:39.567Z,101566.44
2023-04-16T09:32:08.287Z,101574.13
2023-04-16T09:34:53.541Z,101571.44
2023-04-16T09:37:20.427Z,101573.19
2023-04-16T09:39:54.885Z,101575.63
2023-04-16T09:42:29.228Z,101584.31
2023-04-16T09:44:59.469Z,101577.31
2023-04-16T09:47:39.650Z,101584.69
2023-04-16T09:50:07.161Z,101591.34
2023-04-16T09:52:37.159Z,101580.25
2023-04-16T09:55:03.727Z,101586.09
2023-04-16T09:57:30.669Z,101582.25
2023-04-16T10:00:05.717Z,101586.31
2023-04-16T10:02:33.149Z,101577.34
2023-04-16T10:05:01.826Z,101579.78
2023-04-16T10:07:29.207Z,101588.75
2023-04-16T10:09:56.194Z,101590.97
2023-04-16T10:12:22.514Z,101581.41
2023-04-16T10:14:50.447Z,101589.44
2023-04-16T10:17:17.546Z,101589.09
2023-04-16T10:19:44.514Z,101584.31
2023-04-16T10:22:11.632Z,101573.56
2023-04-16T10:24:38.708Z,101579.72
2023-04-16T10:27:05.126Z,101590.34
2023-04-16T10:29:32.724Z,101586.13
2023-04-16T10:31:59.959Z,101589.97
2023-04-16T10:34:27.184Z,101589.38
2023-04-16T10:36:54.674Z,101585.97
2023-04-16T10:39:23.512Z,101592.16
2023-04-16T10:41:50.685Z,101583.47
2023-04-16T10:44:19.224Z,101590.03
2023-04-16T10:46:51.672Z,101581.81
2023-04-16T10:49:27.337Z,101587.50
2023-04-16T10:52:09.644Z,101589.97
2023-04-16T10:54:36.550Z,101588.44
2023-04-16T10:57:05.292Z,101578.38
2023-04-16T10:59:34.956Z,101576.84
2023-04-16T11:02:06.876Z,101581.75
2023-04-16T11:04:39.878Z,101579.06
2023-04-16T11:07:16.564Z,101575.97
2023-04-16T11:10:00.098Z,101574.34
2023-04-16T11:12:32.652Z,101572.91
2023-04-16T11:15:00.364Z,101572.09
2023-04-16T11:17:39.128Z,101574.53
2023-04-16T11:20:20.734Z,101562.97
2023-04-16T11:22:49.005Z,101571.47
2023-04-16T11:25:30.691Z,101563.84
2023-04-16T11:27:58.980Z,101572.13
2023-04-16T11:30:36.344Z,101576.22
2023-04-16T11:33:08.425Z,101568.78
2023-04-16T11:35:35.477Z,101573.41
2023-04-16T11:38:02.213Z,101570.69
2023-04-16T11:40:31.833Z,101579.19
2023-04-16T11:43:04.932Z,101573.34
2023-04-16T11:45:31.585Z,101574.34
2023-04-16T11:47:58.021Z,101577.25
2023-04-16T11:50:26.285Z,101576.88
2023-04-16T11:52:55.540Z,101578.16
2023-04-16T11:55:22.989Z,101578.16
2023-04-16T11:57:50.105Z,101581.78
2023-04-16T12:00:18.958Z,101580.97
2023-04-16T12:02:53.324Z,101576.06
2023-04-16T12:05:35.840Z,101579.59
2023-04-16T12:08:07.447Z,101582.06
2023-04-16T12:10:35.930Z,101584.88
2023-04-16T12:13:15.762Z,101588.75
2023-04-16T12:15:48.284Z,101592.81
2023-04-16T12:18:18.484Z,101591.19
2023-04-16T12:20:45.282Z,101592.38
2023-04-16T12:23:23.264Z,101592.28
2023-04-16T12:25:52.296Z,101594.38
2023-04-16T12:28:33.708Z,101591.09
2023-04-16T12:31:01.073Z,101589.19
2023-04-16T12:33:27.878Z,101592.47
2023-04-16T12:35:54.983Z,101591.75
2023-04-16T12:38:24.077Z,101593.84
2023-04-16T12:40:51.635Z,101587.47
2023-04-16T12:43:21.756Z,101591.56
2023-04-16T12:45:48.587Z,101594.91
2023-04-16T12:48:14.918Z,101599.44
2023-04-16T12:50:44.076Z,101594.72
2023-04-16T12:53:10.413Z,101591.19
2023-04-16T12:55:36.937Z,101593.63
2023-04-16T12:58:03.606Z,101604.16
2023-04-16T13:00:29.922Z,101597.34
2023-04-16T13:02:56.370Z,101596.53
2023-04-16T13:05:22.860Z,101594.06
2023-04-16T13:07:49.287Z,101594.88
2023-04-16T13:10:17.921Z,101590.09
2023-04-16T13:12:44.153Z,101604.59
2023-04-16T13:15:11.107Z,101594.59
2023-04-16T13:17:37.552Z,101591.34
2023-04-16T13:20:04.278Z,101589.72
2023-04-16T13:22:30.817Z,101590.09
2023-04-16T13:24:59.439Z,101593.72
2023-04-16T13:27:25.824Z,101594.97
2023-04-16T13:29:52.356Z,101594.25
2023-04-16T13:32:19.162Z,101598.25
2023-04-16T13:34:45.959Z,101594.97
2023-04-16T13:37:12.332Z,101591.34
2023-04-16T13:39:38.760Z,101594.97
2023-04-16T13:42:05.528Z,101588.16
2023-04-16T13:44:32.218Z,101584.63
2023-04-16T13:46:58.611Z,101581.44
2023-04-16T13:49:25.001Z,101578.72
2023-04-16T13:51:51.339Z,101578.81
2023-04-16T13:54:17.696Z,101586.50
2023-04-16T13:56:44.379Z,101587.88
2023-04-16T13:59:11.126Z,101581.47
2023-04-16T14:01:37.835Z,101586.75
2023-04-16T14:04:06.810Z,101584.75
2023-04-16T14:06:34.706Z,101580.75
2023-04-16T14:09:02.051Z,101585.19
2023-04-16T14:11:28.632Z,101591.28
2023-04-16T14:13:56.174Z,101586.81
2023-04-16T14:16:23.206Z,101580.84
2023-04-16T14:18:51.701Z,101586.47
2023-04-16T14:21:18.285Z,101586.09
2023-04-16T14:23:44.655Z,101584.09
2023-04-16T14:26:11.253Z,101588.91
2023-04-16T14:28:38.048Z,101582.09
2023-04-16T14:31:04.600Z,101587.72
2023-04-16T14:33:32.253Z,101589.34
2023-04-16T14:36:00.074Z,101591.81
2023-04-16T14:38:28.459Z,101591.44
2023-04-16T14:40:55.036Z,101589.00
2023-04-16T14:43:21.596Z,101594.63
2023-04-16T14:45:48.218Z,101587.72
2023-04-16T14:48:14.627Z,101588.53
2023-04-16T14:50:43.849Z,101591.34
2023-04-16T14:53:12.877Z,101585.72
2023-04-16T14:55:39.726Z,101589.81
2023-04-16T14:58:06.080Z,101585.44
2023-04-16T15:00:34.628Z,101587.91
2023-04-16T15:03:01.022Z,101588.34
2023-04-16T15:05:27.609Z,101585.25
2023-04-16T15:07:54.981Z,101595.69
2023-04-16T15:10:21.418Z,101588.06
2023-04-16T15:12:47.994Z,101588.06
2023-04-16T15:15:14.743Z,101582.44
2023-04-16T15:17:42.824Z,101586.88
2023-04-16T15:20:09.612Z,101593.34
2023-04-16T15:22:36.300Z,101593.34
2023-04-16T15:25:03.196Z,101591.34
2023-04-16T15:27:29.642Z,101590.97
2023-04-16T15:29:56.632Z,101589.78
2023-04-16T15:32:24.660Z,101587.78
2023-04-16T15:34:51.689Z,101593.41
2023-04-16T15:37:18.087Z,101592.59
2023-04-16T15:39:46.062Z,101593.06
2023-04-16T15:42:13.193Z,101592.22
2023-04-16T15:44:40.285Z,101593.06
2023-04-16T15:47:08.505Z,101590.25
2023-04-16T15:49:35.470Z,101598.31
2023-04-16T15:52:01.981Z,101593.88
2023-04-16T15:54:29.408Z,101594.69
2023-04-16T15:56:55.842Z,101596.31
2023-04-16T15:59:22.246Z,101594.69
2023-04-16T16:01:48.673Z,101591.06
2023-04-16T16:04:15.104Z,101595.88
2023-04-16T16:06:42.058Z,101601.84
2023-04-16T16:09:09.101Z,101589.41
2023-04-16T16:11:37.245Z,101595.41
2023-04-16T16:14:06.560Z,101594.22
2023-04-16T16:16:34.497Z,101599.03
2023-04-16T16:19:01.152Z,101595.03
2023-04-16T16:21:29.971Z,101599.03
2023-04-16T16:23:57.124Z,101599.50
2023-04-16T16:26:23.690Z,101604.66
2023-04-16T16:28:50.110Z,101604.22
2023-04-16T16:31:16.486Z,101601.78
2023-04-16T16:33:42.866Z,101608.22
2023-04-16T16:36:12.371Z,101608.13
2023-04-16T16:38:40.925Z,101610.94
2023-04-16T16:41:07.382Z,101607.31
2023-04-16T16:43:36.701Z,101608.56
2023-04-16T16:46:03.062Z,101606.50
2023-04-16T16:48:29.624Z,101602.44
2023-04-16T16:50:56.012Z,101609.94
2023-04-16T16:53:22.384Z,101607.88
2023-04-16T16:55:48.729Z,101602.59
2023-04-16T16:58:15.376Z,101605.78
2023-04-16T17:00:43.348Z,101607.78
2023-04-16T17:03:09.910Z,101611.78
2023-04-16T17:05:39.553Z,101607.31
2023-04-16T17:08:08.017Z,101604.16
2023-04-16T17:10:35.242Z,101608.22
2023-04-16T17:13:01.566Z,101613.56
2023-04-16T17:15:28.095Z,101605.50
2023-04-16T17:17:54.429Z,101606.69
2023-04-16T17:20:20.985Z,101598.25
2023-04-16T17:22:47.494Z,101605.88
2023-04-16T17:25:14.366Z,101613.13
2023-04-16T17:27:40.766Z,101606.31
2023-04-16T17:30:08.373Z,101609.13
2023-04-16T17:32:35.238Z,101605.13
2023-04-16T17:35:04.105Z,101609.59
2023-04-16T17:37:30.984Z,101607.13
2023-04-16T17:39:57.324Z,101619.19
2023-04-16T17:42:24.535Z,101612.75
2023-04-16T17:44:50.854Z,101619.19
2023-04-16T17:47:17.202Z,101617.56
2023-04-16T17:49:44.427Z,101624.00
2023-04-16T17:52:11.063Z,101624.00
2023-04-16T17:54:37.373Z,101627.63
2023-04-16T17:57:03.919Z,101628.00
2023-04-16T17:59:31.773Z,101615.94
2023-04-16T18:01:58.496Z,101630.81
2023-04-16T18:04:25.028Z,101630.00
2023-04-16T18:06:51.573Z,101629.19
2023-04-16T18:09:19.275Z,101636.00
2023-04-16T18:11:45.627Z,101636.81
2023-04-16T18:14:14.213Z,101635.19
2023-04-16T18:16:41.968Z,101635.19
2023-04-16T18:19:08.355Z,101638.88
2023-04-16T18:21:35.628Z,101644.44
2023-04-16T18:24:03.365Z,101647.16
2023-04-16T18:26:30.110Z,101645.53
2023-04-16T18:28:56.665Z,101653.50
2023-04-16T18:31:23.181Z,101639.38
2023-04-16T18:33:57.416Z,101653.78
2023-04-16T18:36:26.520Z,101648.91
2023-04-16T18:39:01.622Z,101654.88
2023-04-16T18:41:40.897Z,101653.63
2023-04-16T18:44:08.074Z,101661.59
2023-04-16T18:46:34.657Z,101660.34
2023-04-16T18:49:01.528Z,101661.06
2023-04-16T18:51:27.911Z,101665.44
2023-04-16T18:53:54.616Z,101661.72
2023-04-16T18:56:21.160Z,101661.25
2023-04-16T18:58:47.808Z,101664.81
2023-04-16T19:01:16.309Z,101664.00
2023-04-16T19:03:43.005Z,101663.91
2023-04-16T19:06:09.365Z,101667.91
2023-04-16T19:08:35.920Z,101669.44
2023-04-16T19:11:02.618Z,101668.16
2023-04-16T19:13:30.289Z,101668.50
2023-04-16T19:15:59.337Z,101668.06
2023-04-16T19:18:28.796Z,101678.03
2023-04-16T19:21:00.132Z,101672.34
2023-04-16T19:23:27.189Z,101672.34
2023-04-16T19:25:53.526Z,101675.50
2023-04-16T19:28:19.941Z,101683.47
2023-04-16T19:30:50.021Z,101682.56
2023-04-16T19:33:16.364Z,101679.75
2023-04-16T19:35:43.152Z,101675.31
2023-04-16T19:38:10.919Z,101674.03
2023-04-16T19:40:38.239Z,101678.03
2023-04-16T19:43:04.587Z,101675.59
2023-04-16T19:45:31.628Z,101681.56
2023-04-16T19:47:58.257Z,101678.28
2023-04-16T19:50:24.829Z,101684.28
2023-04-16T19:52:51.542Z,101678.19
2023-04-16T19:55:18.883Z,101679.75
2023-04-16T19:57:48.230Z,101683.75
2023-04-16T20:00:15.035Z,101679.63
2023-04-16T20:02:41.460Z,101677.97
2023-04-16T20:05:09.640Z,101681.50
2023-04-16T20:07:36.276Z,101685.94
2023-04-16T20:10:02.952Z,101690.75
2023-04-16T20:12:29.710Z,101688.31
2023-04-16T20:14:56.093Z,101702.34
2023-04-16T20:17:22.902Z,101704.34
2023-04-16T20:19:49.492Z,101706.66
2023-04-16T20:22:18.076Z,101702.97
2023-04-16T20:24:47.863Z,101702.88
2023-04-16T20:27:14.918Z,101708.00
2023-04-16T20:29:41.750Z,101703.00
2023-04-16T20:32:08.396Z,101699.66
2023-04-16T20:34:34.849Z,101702.22
2023-04-16T20:37:01.412Z,101699.34
2023-04-16T20:39:28.013Z,101704.03
2023-04-16T20:41:57.248Z,101704.28
2023-04-16T20:44:26.432Z,101700.56
2023-04-16T20:46:54.865Z,101703.25
2023-04-16T20:49:21.500Z,101702.44
2023-04-16T20:51:47.914Z,101703.25
2023-04-16T20:54:14.338Z,101698.69
2023-04-16T20:56:40.764Z,101692.16
2023-04-16T20:59:07.119Z,101693.69
2023-04-16T21:01:33.546Z,101699.69
2023-04-16T21:04:00.439Z,101701.19
2023-04-16T21:06:27.164Z,101699.91
2023-04-16T21:08:53.720Z,101694.66
2023-04-16T21:11:20.663Z,101697.81
2023-04-16T21:13:47.358Z,101698.19
2023-04-16T21:16:13.815Z,101700.50
2023-04-16T21:18:40.368Z,101695.25
2023-04-16T21:21:06.957Z,101699.56
2023-04-16T21:23:33.685Z,101701.56
2023-04-16T21:26:02.885Z,101699.94
2023-04-16T21:28:29.602Z,101696.31
2023-04-16T21:30:57.414Z,101702.63
2023-04-16T21:33:23.844Z,101703.09
2023-04-16T21:35:53.914Z,101700.19
2023-04-16T21:38:21.708Z,101701.81
2023-04-16T21:40:50.803Z,101705.78
2023-04-16T21:43:17.816Z,101714.19
2023-04-16T21:45:44.204Z,101714.19
2023-04-16T21:48:10.889Z,101707.28
2023-04-16T21:50:37.931Z,101706.47
2023-04-16T21:53:06.271Z,101704.81
2023-04-16T21:55:34.582Z,101704.00
2023-04-16T21:58:01.170Z,101711.59
2023-04-16T22:00:27.625Z,101702.38
2023-04-16T22:02:55.953Z,101702.38
2023-04-16T22:05:24.216Z,101712.41
2023-04-16T22:07:50.771Z,101706.16
2023-04-16T22:10:17.180Z,101693.59
2023-04-16T22:12:45.583Z,101711.59
2023-04-16T22:15:13.432Z,101705.19
2023-04-16T22:17:40.703Z,101698.75
2023-04-16T22:20:14.511Z,101706.34
2023-04-16T22:22:41.993Z,101701.91
2023-04-16T22:25:09.721Z,101699.91
2023-04-16T22:27:36.732Z,101700.75
2023-04-16T22:30:04.262Z,101697.09
2023-04-16T22:32:30.877Z,101704.69
2023-04-16T22:34:57.286Z,101707.50
2023-04-16T22:37:23.851Z,101708.69
2023-04-16T22:39:50.230Z,101705.06
2023-04-16T22:42:16.829Z,101704.25
2023-04-16T22:44:44.216Z,101701.81
2023-04-16T22:47:10.790Z,101709.41
2023-04-16T22:49:37.158Z,101708.09
2023-04-16T22:52:03.752Z,101710.53
2023-04-16T22:54:30.660Z,101706.47
2023-04-16T22:56:57.590Z,101712.09
2023-04-16T22:59:24.761Z,101704.84
2023-04-16T23:01:52.123Z,101708.47
2023-04-16T23:04:18.825Z,101713.25
2023-04-16T23:06:46.128Z,101708.47
2023-04-16T23:09:12.689Z,101706.00
2023-04-16T23:11:39.298Z,101707.97
2023-04-16T23:14:05.892Z,101711.97
2023-04-16T23:16:32.474Z,101711.16
2023-04-16T23:18:59.081Z,101715.94
2023-04-16T23:21:25.860Z,101722.25
2023-04-16T23:23:52.222Z,101721.78
2023-04-16T23:26:18.702Z,101718.84
2023-04-16T23:28:45.383Z,101714.78
2023-04-16T23:31:11.747Z,101719.09
2023-04-16T23:33:38.472Z,101715.34
2023-04-16T23:36:05.146Z,101721.69
2023-04-16T23:38:31.630Z,101720.00
2023-04-16T23:40:58.237Z,101715.94
2023-04-16T23:43:24.749Z,101719.06
2023-04-16T23:45:52.941Z,101722.59
2023-04-16T23:48:19.285Z,101717.34
2023-04-16T23:50:45.662Z,101714.88
2023-04-16T23:53:12.589Z,101719.53
2023-04-16T23:55:39.310Z,101722.34
2023-04-16T23:58:05.760Z,101727.84
